Time;durP1;ratioP1;P1;durP2;ratioP2;P2;SDS_P1;SDS_P2;PMS_P1;PMS_P2;Temp;Humidity;BMP_temperature;BMP_pressure;BME280_temperature;BME280_humidity;BME280_pressure;Samples;Min_cycle;Max_cycle;Signal;HPM_P1;HPM_P2
2022/09/10 00:00:20;;;;;;;;;;;;;;;14.93;68.95;-25487.03;5050812;28;20007;-77
2022/09/10 00:02:47;;;;;;;;;;;;;;;14.92;68.90;-25486.75;5050648;28;19931;-76
2022/09/10 00:05:12;;;;;;;;;;;;;;;14.87;68.88;-25485.56;5047746;28;19917;-76
2022/09/10 00:07:38;;;;;;;;;;;;;;;14.87;68.87;-25485.56;5051423;28;20272;-78
2022/09/10 00:10:04;;;;;;;;;;;;;;;14.83;68.95;-25484.25;5050845;28;19916;-75
2022/09/10 00:12:30;;;;;;;;;;;;;;;14.85;68.98;-25484.84;5051272;28;19917;-76
2022/09/10 00:14:55;;;;;;;;;;;;;;;14.82;69.00;-25483.97;5050528;28;19944;-76
2022/09/10 00:17:20;;;;;;;;;;;;;;;14.83;69.01;-25484.41;5050668;28;20014;-75
2022/09/10 00:19:45;;;;;;;;;;;;;;;14.88;68.99;-25485.88;5050850;28;19917;-76
2022/09/10 00:22:12;;;;;;;;;;;;;;;14.81;69.11;-25483.69;5050888;28;19978;-76
2022/09/10 00:24:38;;;;;;;;;;;;;;;14.84;69.08;-25484.69;5050911;28;20055;-75
2022/09/10 00:27:03;;;;;;;;;;;;;;;14.77;69.23;-25482.50;5034013;28;19945;-76
2022/09/10 00:29:29;;;;;;;;;;;;;;;14.80;69.29;-25483.38;5050805;28;19921;-75
2022/09/10 00:31:55;;;;;;;;;;;;;;;14.81;69.34;-25483.81;5053828;28;19916;-84
2022/09/10 00:34:20;;;;;;;;;;;;;;;14.71;69.48;-25480.91;5054348;28;19916;-76
2022/09/10 00:36:47;;;;;;;;;;;;;;;14.75;69.56;-25481.94;5054835;28;20339;-76
2022/09/10 00:39:14;;;;;;;;;;;;;;;14.80;69.58;-25483.53;5054480;28;19921;-76
2022/09/10 00:41:40;;;;;;;;;;;;;;;14.70;69.72;-25480.63;5056286;28;19970;-78
2022/09/10 00:44:26;;;;;;;;;;;;;;;14.69;69.96;-25480.47;5054424;28;19913;-82
2022/09/10 00:46:53;;;;;;;;;;;;;;;14.63;70.16;-25478.72;5054562;28;19917;-74
2022/09/10 00:49:24;;;;;;;;;;;;;;;14.58;70.42;-25477.25;5054458;28;19921;-75
2022/09/10 00:51:51;;;;;;;;;;;;;;;14.60;70.68;-25477.84;5055145;28;19917;-81
2022/09/10 00:54:19;;;;;;;;;;;;;;;14.59;70.91;-25477.56;5054835;28;19920;-79
2022/09/10 00:56:45;;;;;;;;;;;;;;;14.58;71.07;-25477.25;5055639;28;19917;-85
2022/09/10 00:59:13;;;;;;;;;;;;;;;14.54;71.19;-25476.25;5053917;28;19924;-78
2022/09/10 01:01:39;;;;;;;;;;;;;;;14.55;71.27;-25476.53;5054945;28;20270;-82
2022/09/10 01:04:06;;;;;;;;;;;;;;;14.58;71.19;-25477.25;5055663;28;19924;-80
2022/09/10 01:06:31;;;;;;;;;;;;;;;14.58;71.08;-25477.25;5055006;28;20259;-81
2022/09/10 01:08:56;;;;;;;;;;;;;;;14.57;70.85;-25476.81;5055375;28;19970;-81
2022/09/10 01:11:33;;;;;;;;;;;;;;;14.61;70.63;-25478.16;5057687;28;19916;-83
2022/09/10 01:14:00;;;;;;;;;;;;;;;14.57;70.47;-25476.97;5056376;28;20361;-77
2022/09/10 01:16:43;;;;;;;;;;;;;;;14.57;70.32;-25476.97;5055563;28;19962;-87
2022/09/10 01:19:29;;;;;;;;;;;;;;;14.61;70.12;-25478.00;5054726;28;19971;-86
2022/09/10 01:22:14;;;;;;;;;;;;;;;14.58;69.98;-25477.25;5054736;28;20003;-83
2022/09/10 01:24:54;;;;;;;;;;;;;;;14.64;69.82;-25479.00;5051465;28;19917;-85
2022/09/10 01:27:38;;;;;;;;;;;;;;;14.64;69.70;-25478.88;5054507;28;20008;-87
2022/09/10 01:30:04;;;;;;;;;;;;;;;14.63;69.56;-25478.72;5055127;28;19951;-85
2022/09/10 01:32:39;;;;;;;;;;;;;;;14.67;69.42;-25479.88;5055539;28;19917;-83
2022/09/10 01:35:15;;;;;;;;;;;;;;;14.67;69.30;-25479.75;5061433;28;19944;-79
2022/09/10 01:37:44;;;;;;;;;;;;;;;14.73;69.15;-25481.50;5055437;28;19921;-88
2022/09/10 01:40:10;;;;;;;;;;;;;;;14.77;69.05;-25482.50;5054485;28;19925;-79
2022/09/10 01:42:36;;;;;;;;;;;;;;;14.76;68.97;-25482.38;5038084;28;20031;-86
2022/09/10 01:45:01;;;;;;;;;;;;;;;14.75;68.88;-25482.06;5054503;28;19938;-84
2022/09/10 01:47:36;;;;;;;;;;;;;;;14.74;68.76;-25481.63;5054951;28;19919;-81
2022/09/10 01:50:14;;;;;;;;;;;;;;;14.81;68.65;-25483.69;5055005;28;19917;-85
2022/09/10 01:52:58;;;;;;;;;;;;;;;14.80;68.53;-25483.53;5055740;28;19912;-88
2022/09/10 01:55:28;;;;;;;;;;;;;;;14.83;68.45;-25484.25;5055554;28;19966;-88
2022/09/10 01:58:00;;;;;;;;;;;;;;;14.83;68.37;-25484.41;5055835;28;20396;-84
2022/09/10 02:00:25;;;;;;;;;;;;;;;14.86;68.28;-25485.13;5055252;28;19917;-83
2022/09/10 02:02:54;;;;;;;;;;;;;;;14.89;68.16;-25486.16;5059165;28;19917;-84
2022/09/10 02:05:21;;;;;;;;;;;;;;;14.92;68.04;-25486.75;5059376;28;19921;-88
2022/09/10 02:07:47;;;;;;;;;;;;;;;14.97;67.94;-25488.19;5065226;28;20452;-85
2022/09/10 02:10:13;;;;;;;;;;;;;;;14.96;67.82;-25488.03;5057865;28;19917;-77
2022/09/10 02:12:40;;;;;;;;;;;;;;;15.00;67.71;-25489.06;5067398;28;19981;-81
2022/09/10 02:15:07;;;;;;;;;;;;;;;14.96;67.67;-25488.03;5072121;28;19917;-84
2022/09/10 02:17:34;;;;;;;;;;;;;;;14.95;67.65;-25487.75;5065070;28;19980;-86
2022/09/10 02:20:01;;;;;;;;;;;;;;;14.89;67.66;-25486.00;5068101;28;19917;-84
2022/09/10 02:22:27;;;;;;;;;;;;;;;14.90;67.65;-25486.44;5069144;28;19917;-86
2022/09/10 02:24:54;;;;;;;;;;;;;;;14.95;67.59;-25487.59;5074509;28;19916;-84
2022/09/10 02:27:19;;;;;;;;;;;;;;;14.94;67.60;-25487.47;5057352;28;19924;-85
2022/09/10 02:29:45;;;;;;;;;;;;;;;14.93;67.58;-25487.19;5057852;28;19974;-85
2022/09/10 02:32:10;;;;;;;;;;;;;;;14.94;67.58;-25487.47;5055221;28;19924;-86
2022/09/10 02:34:36;;;;;;;;;;;;;;;14.95;67.56;-25487.59;5054175;28;20469;-86
2022/09/10 02:37:02;;;;;;;;;;;;;;;14.92;67.59;-25486.88;5054083;28;19924;-89
2022/09/10 02:39:28;;;;;;;;;;;;;;;14.93;67.58;-25487.19;5053939;28;19920;-85
2022/09/10 02:41:55;;;;;;;;;;;;;;;14.92;67.60;-25486.88;5052309;28;19924;-87
2022/09/10 02:44:21;;;;;;;;;;;;;;;14.94;67.57;-25487.31;5050453;28;19913;-78
2022/09/10 02:46:46;;;;;;;;;;;;;;;14.95;67.54;-25487.75;5052164;28;20272;-78
2022/09/10 02:49:11;;;;;;;;;;;;;;;14.96;67.51;-25488.03;5052808;28;19920;-76
2022/09/10 02:51:37;;;;;;;;;;;;;;;14.98;67.47;-25488.47;5052852;28;19916;-76
2022/09/10 02:54:04;;;;;;;;;;;;;;;14.98;67.47;-25488.63;5051695;28;19916;-76
2022/09/10 02:56:29;;;;;;;;;;;;;;;14.98;67.49;-25488.47;5052957;28;19952;-78
2022/09/10 02:58:54;;;;;;;;;;;;;;;15.00;67.44;-25489.06;5052044;28;20030;-77
2022/09/10 03:01:20;;;;;;;;;;;;;;;15.00;67.35;-25489.22;5051959;28;19916;-83
2022/09/10 03:03:50;;;;;;;;;;;;;;;15.04;67.26;-25490.38;5052115;28;19923;-76
2022/09/10 03:06:16;;;;;;;;;;;;;;;15.00;67.20;-25489.22;5051888;28;19917;-76
2022/09/10 03:08:41;;;;;;;;;;;;;;;14.99;67.16;-25488.91;5052207;28;19917;-76
2022/09/10 03:11:08;;;;;;;;;;;;;;;15.01;67.09;-25489.50;5052532;28;19917;-77
2022/09/10 03:13:34;;;;;;;;;;;;;;;15.01;67.06;-25489.34;5051675;28;19917;-77
2022/09/10 03:16:02;;;;;;;;;;;;;;;14.98;67.01;-25488.63;5051921;28;19975;-76
2022/09/10 03:18:30;;;;;;;;;;;;;;;14.98;66.97;-25488.63;5051149;28;19923;-75
2022/09/10 03:21:06;;;;;;;;;;;;;;;14.94;66.94;-25487.47;5051038;28;19924;-76
2022/09/10 03:23:32;;;;;;;;;;;;;;;14.94;66.90;-25487.31;5051584;28;19940;-76
2022/09/10 03:25:58;;;;;;;;;;;;;;;14.93;66.82;-25487.19;5052107;28;19936;-76
2022/09/10 03:28:25;;;;;;;;;;;;;;;14.90;66.79;-25486.31;5035019;28;19921;-75
2022/09/10 03:30:50;;;;;;;;;;;;;;;14.87;66.72;-25485.56;5051875;28;19921;-85
2022/09/10 03:33:23;;;;;;;;;;;;;;;14.86;66.69;-25485.13;5050188;28;19916;-82
2022/09/10 03:35:48;;;;;;;;;;;;;;;14.86;66.64;-25485.13;5052499;28;19921;-82
2022/09/10 03:38:13;;;;;;;;;;;;;;;14.84;66.55;-25484.69;5052116;28;19940;-83
2022/09/10 03:40:39;;;;;;;;;;;;;;;14.88;66.43;-25485.72;5051981;28;20058;-77
2022/09/10 03:43:06;;;;;;;;;;;;;;;14.92;66.34;-25486.75;5052004;28;20484;-84
2022/09/10 03:45:31;;;;;;;;;;;;;;;14.95;66.29;-25487.75;5052614;28;19916;-80
2022/09/10 03:47:58;;;;;;;;;;;;;;;14.94;66.27;-25487.31;5053468;28;19927;-81
2022/09/10 03:50:25;;;;;;;;;;;;;;;14.96;66.23;-25487.91;5052685;28;19916;-85
2022/09/10 03:52:51;;;;;;;;;;;;;;;14.95;66.20;-25487.59;5052401;28;19963;-84
2022/09/10 03:55:16;;;;;;;;;;;;;;;15.00;66.17;-25489.22;5052144;28;20019;-86
2022/09/10 03:57:42;;;;;;;;;;;;;;;15.01;66.15;-25489.50;5053636;28;20016;-79
2022/09/10 04:00:11;;;;;;;;;;;;;;;15.01;66.10;-25489.50;5052556;28;19958;-84
2022/09/10 04:02:40;;;;;;;;;;;;;;;14.98;66.08;-25488.63;5036112;28;19959;-83
2022/09/10 04:05:06;;;;;;;;;;;;;;;14.93;66.07;-25487.19;5051546;28;20016;-85
2022/09/10 04:07:32;;;;;;;;;;;;;;;14.89;66.08;-25486.00;5051699;28;19952;-84
2022/09/10 04:10:02;;;;;;;;;;;;;;;14.82;66.07;-25484.13;5053137;28;19945;-85
2022/09/10 04:12:39;;;;;;;;;;;;;;;14.81;66.05;-25483.69;5051691;28;19959;-84
2022/09/10 04:15:04;;;;;;;;;;;;;;;14.77;66.04;-25482.50;5051704;28;19917;-86
2022/09/10 04:17:30;;;;;;;;;;;;;;;14.76;66.00;-25482.38;5052077;28;19931;-85
2022/09/10 04:19:57;;;;;;;;;;;;;;;14.76;65.98;-25482.22;5053017;28;20369;-84
2022/09/10 04:22:23;;;;;;;;;;;;;;;14.80;65.97;-25483.53;5052776;28;19971;-82
2022/09/10 04:24:48;;;;;;;;;;;;;;;14.83;65.93;-25484.25;5052432;28;20491;-84
2022/09/10 04:27:15;;;;;;;;;;;;;;;14.89;65.86;-25486.16;5051794;28;19918;-85
2022/09/10 04:29:41;;;;;;;;;;;;;;;14.91;65.87;-25486.59;5052703;28;19921;-83
2022/09/10 04:32:07;;;;;;;;;;;;;;;14.94;65.83;-25487.47;5052356;28;20400;-84
2022/09/10 04:34:32;;;;;;;;;;;;;;;14.95;65.81;-25487.75;5052860;28;19960;-84
2022/09/10 04:36:58;;;;;;;;;;;;;;;14.95;65.82;-25487.59;5052279;28;19928;-83
2022/09/10 04:39:24;;;;;;;;;;;;;;;14.92;65.79;-25486.88;5051948;28;19925;-84
2022/09/10 04:41:49;;;;;;;;;;;;;;;14.89;65.78;-25486.00;5052528;28;19917;-85
2022/09/10 04:44:21;;;;;;;;;;;;;;;14.86;65.72;-25485.28;5052515;28;19913;-81
2022/09/10 04:46:47;;;;;;;;;;;;;;;14.82;65.69;-25484.13;5052790;28;19970;-85
2022/09/10 04:49:12;;;;;;;;;;;;;;;14.77;65.70;-25482.66;5052108;28;19913;-83
2022/09/10 04:51:37;;;;;;;;;;;;;;;14.77;65.67;-25482.66;5051835;28;19925;-84
2022/09/10 04:54:03;;;;;;;;;;;;;;;14.73;65.68;-25481.50;5049625;28;19967;-76
2022/09/10 04:56:29;;;;;;;;;;;;;;;14.74;65.67;-25481.63;5050980;28;20331;-78
2022/09/10 04:58:55;;;;;;;;;;;;;;;14.73;65.66;-25481.50;5051036;28;19917;-77
2022/09/10 05:01:20;;;;;;;;;;;;;;;14.77;65.64;-25482.50;5050667;28;19917;-75
2022/09/10 05:03:47;;;;;;;;;;;;;;;14.77;65.64;-25482.66;5050669;28;19917;-77
2022/09/10 05:06:12;;;;;;;;;;;;;;;14.81;65.62;-25483.81;5050484;28;20373;-77
2022/09/10 05:08:38;;;;;;;;;;;;;;;14.83;65.62;-25484.25;5050950;28;19921;-76
2022/09/10 05:11:03;;;;;;;;;;;;;;;14.86;65.62;-25485.28;5050598;28;19920;-77
2022/09/10 05:13:30;;;;;;;;;;;;;;;14.88;65.58;-25485.72;5050066;28;19917;-77
2022/09/10 05:15:57;;;;;;;;;;;;;;;14.94;65.55;-25487.47;5050307;28;20368;-82
2022/09/10 05:18:22;;;;;;;;;;;;;;;14.93;65.54;-25487.03;5060661;28;19998;-82
2022/09/10 05:20:48;;;;;;;;;;;;;;;14.90;65.53;-25486.31;5074939;28;19924;-81
2022/09/10 05:23:14;;;;;;;;;;;;;;;14.89;65.54;-25486.16;5072902;28;19990;-79
2022/09/10 05:25:41;;;;;;;;;;;;;;;14.84;65.53;-25484.69;5055910;28;20434;-75
2022/09/10 05:28:08;;;;;;;;;;;;;;;14.81;65.55;-25483.69;5054574;28;19921;-83
2022/09/10 05:30:33;;;;;;;;;;;;;;;14.82;65.53;-25484.13;5055176;28;19921;-83
2022/09/10 05:33:03;;;;;;;;;;;;;;;14.81;65.53;-25483.69;5038784;28;19947;-80
2022/09/10 05:35:29;;;;;;;;;;;;;;;14.81;65.52;-25483.81;5055259;28;19924;-81
2022/09/10 05:37:57;;;;;;;;;;;;;;;14.83;65.52;-25484.41;5057510;28;20034;-79
2022/09/10 05:40:24;;;;;;;;;;;;;;;15.08;65.48;-25491.38;5054592;28;20450;-81
2022/09/10 05:43:04;;;;;;;;;;;;;;;15.87;65.39;-25513.66;5055244;28;19917;-82
2022/09/10 05:45:30;;;;;;;;;;;;;;;15.90;65.36;-25514.66;5054203;28;19943;-81
2022/09/10 05:47:56;;;;;;;;;;;;;;;15.64;65.40;-25507.25;5056233;28;19917;-79
2022/09/10 05:50:21;;;;;;;;;;;;;;;15.63;65.43;-25506.97;5073216;28;19916;-77
2022/09/10 05:52:47;;;;;;;;;;;;;;;15.57;65.46;-25505.22;5073538;28;19916;-77
2022/09/10 05:55:12;;;;;;;;;;;;;;;15.60;65.47;-25506.09;5072948;28;19957;-77
2022/09/10 05:57:39;;;;;;;;;;;;;;;15.61;65.49;-25506.53;5073487;28;20017;-78
2022/09/10 06:00:08;;;;;;;;;;;;;;;15.61;65.52;-25506.53;5055991;28;19982;-75
2022/09/10 06:02:37;;;;;;;;;;;;;;;15.58;65.57;-25505.50;5073400;28;20011;-76
2022/09/10 06:05:03;;;;;;;;;;;;;;;15.75;65.56;-25510.44;5053633;28;20289;-83
2022/09/10 06:07:29;;;;;;;;;;;;;;;15.76;65.61;-25510.72;5053843;28;19925;-82
2022/09/10 06:09:59;;;;;;;;;;;;;;;15.90;65.63;-25514.66;5053490;28;19917;-80
2022/09/10 06:12:25;;;;;;;;;;;;;;;16.13;65.66;-25521.19;5056059;28;19920;-83
2022/09/10 06:14:50;;;;;;;;;;;;;;;16.06;65.72;-25519.16;5050864;28;19963;-77
2022/09/10 06:17:18;;;;;;;;;;;;;;;16.23;65.76;-25523.81;5051926;28;19924;-82
2022/09/10 06:19:44;;;;;;;;;;;;;;;16.18;65.87;-25522.38;5052417;28;19932;-77
2022/09/10 06:22:10;;;;;;;;;;;;;;;16.21;66.04;-25523.25;5051140;28;20235;-75
2022/09/10 06:24:36;;;;;;;;;;;;;;;16.35;66.15;-25527.16;5052999;28;19924;-77
2022/09/10 06:27:01;;;;;;;;;;;;;;;16.59;66.28;-25533.97;5052645;28;20289;-82
2022/09/10 06:29:28;;;;;;;;;;;;;;;16.74;66.47;-25538.34;5050798;28;19920;-76
2022/09/10 06:31:53;;;;;;;;;;;;;;;17.31;66.59;-25554.28;5052155;28;19936;-76
2022/09/10 06:34:19;;;;;;;;;;;;;;;17.82;67.17;-25568.63;5051679;28;19921;-79
2022/09/10 06:36:48;;;;;;;;;;;;;;;18.09;69.71;-25576.31;5052031;28;19917;-76
2022/09/10 06:39:13;;;;;;;;;;;;;;;18.17;74.55;-25578.50;5051716;28;19956;-76
2022/09/10 06:41:38;;;;;;;;;;;;;;;18.17;76.99;-25578.63;5051630;28;19940;-76
2022/09/10 06:44:10;;;;;;;;;;;;;;;17.81;79.27;-25568.34;5051368;28;19912;-77
2022/09/10 06:46:35;;;;;;;;;;;;;;;17.81;81.13;-25568.50;5051823;28;19924;-76
2022/09/10 06:49:02;;;;;;;;;;;;;;;18.02;83.04;-25574.44;5051335;28;19917;-76
2022/09/10 06:51:32;;;;;;;;;;;;;;;18.10;85.23;-25576.59;5051633;28;19913;-81
2022/09/10 06:53:57;;;;;;;;;;;;;;;18.15;88.68;-25577.91;5051992;28;19917;-74
2022/09/10 06:56:23;;;;;;;;;;;;;;;18.40;93.69;-25585.13;5051551;28;19913;-75
2022/09/10 06:58:48;;;;;;;;;;;;;;;18.60;100.00;-25590.78;5052181;28;19928;-82
2022/09/10 07:01:16;;;;;;;;;;;;;;;18.45;100.00;-25586.59;5052718;28;19978;-82
2022/09/10 07:03:42;;;;;;;;;;;;;;;18.50;100.00;-25587.88;5056450;28;20040;-79
2022/09/10 07:06:09;;;;;;;;;;;;;;;18.25;100.00;-25580.94;5062048;28;20336;-82
2022/09/10 07:08:35;;;;;;;;;;;;;;;18.14;100.00;-25577.63;5056290;28;19924;-83
2022/09/10 07:11:02;;;;;;;;;;;;;;;17.87;100.00;-25570.09;5054072;28;19921;-81
2022/09/10 07:13:43;;;;;;;;;;;;;;;17.71;100.00;-25565.59;5055711;28;20341;-82
2022/09/10 07:16:09;;;;;;;;;;;;;;;17.61;100.00;-25562.84;5054805;28;20016;-82
2022/09/10 07:18:34;;;;;;;;;;;;;;;17.59;100.00;-25562.25;5054355;28;19955;-82
2022/09/10 07:21:09;;;;;;;;;;;;;;;17.38;100.00;-25556.47;5052825;28;20007;-77
2022/09/10 07:23:35;;;;;;;;;;;;;;;17.38;100.00;-25556.31;5055394;28;19969;-75
2022/09/10 07:26:04;;;;;;;;;;;;;;;17.46;100.00;-25558.63;5058191;28;20019;-75
2022/09/10 07:28:30;;;;;;;;;;;;;;;17.35;100.00;-25555.44;5055678;28;19924;-75
2022/09/10 07:30:56;;;;;;;;;;;;;;;17.41;100.00;-25557.34;5053356;28;19917;-77
2022/09/10 07:33:22;;;;;;;;;;;;;;;17.55;100.00;-25561.25;5072635;28;20378;-78
2022/09/10 07:35:47;;;;;;;;;;;;;;;17.68;100.00;-25564.72;5077114;28;20368;-77
2022/09/10 07:38:13;;;;;;;;;;;;;;;17.77;100.00;-25567.34;5076065;28;19948;-75
2022/09/10 07:40:39;;;;;;;;;;;;;;;18.19;100.00;-25579.22;5077627;28;19924;-75
2022/09/10 07:43:07;;;;;;;;;;;;;;;18.42;100.00;-25585.72;5071018;28;20422;-78
2022/09/10 07:45:32;;;;;;;;;;;;;;;18.37;100.00;-25584.13;5071798;28;19978;-75
2022/09/10 07:47:57;;;;;;;;;;;;;;;18.36;100.00;-25583.97;5054458;28;20467;-73
2022/09/10 07:50:22;;;;;;;;;;;;;;;18.53;100.00;-25588.75;5051562;28;20421;-77
2022/09/10 07:52:48;;;;;;;;;;;;;;;18.86;100.00;-25597.88;5034477;28;19924;-75
2022/09/10 07:55:13;;;;;;;;;;;;;;;19.35;100.00;-25611.88;5053526;28;20015;-77
2022/09/10 07:57:40;;;;;;;;;;;;;;;20.37;100.00;-25640.44;5051750;28;20010;-79
2022/09/10 08:00:13;;;;;;;;;;;;;;;;;;5050680;28;20000;-78
2022/09/10 08:02:41;;;;;;;;;;;;;;;20.57;100.00;-25645.91;5050596;28;20373;-79
2022/09/10 08:05:07;;;;;;;;;;;;;;;21.29;100.00;-25666.09;5049861;28;19922;-77
2022/09/10 08:07:32;;;;;;;;;;;;;;;21.09;100.00;-25660.47;5049101;28;19913;-75
2022/09/10 08:09:58;;;;;;;;;;;;;;;21.61;100.00;-25675.00;5049842;28;20284;-80
2022/09/10 08:12:24;;;;;;;;;;;;;;;21.97;100.00;-25685.22;5049547;28;19949;-76
2022/09/10 08:14:49;;;;;;;;;;;;;;;20.86;100.00;-25654.13;5049180;28;19912;-76
2022/09/10 08:17:15;;;;;;;;;;;;;;;19.15;100.00;-25606.25;5050071;28;19978;-77
2022/09/10 08:19:40;;;;;;;;;;;;;;;18.12;100.00;-25577.19;5050002;28;19921;-77
2022/09/10 08:22:05;;;;;;;;;;;;;;;17.30;100.00;-25554.00;5049440;28;19917;-78
2022/09/10 08:24:31;;;;;;;;;;;;;;;17.05;100.00;-25547.03;5050216;28;19963;-78
2022/09/10 08:26:57;;;;;;;;;;;;;;;17.12;100.00;-25549.06;5049222;28;20003;-78
2022/09/10 08:29:22;;;;;;;;;;;;;;;17.18;100.00;-25550.81;5049275;28;19980;-79
2022/09/10 08:31:49;;;;;;;;;;;;;;;17.34;100.00;-25555.16;5050318;28;19974;-75
2022/09/10 08:34:14;;;;;;;;;;;;;;;17.27;100.00;-25553.13;5049000;28;19967;-77
2022/09/10 08:36:40;;;;;;;;;;;;;;;17.16;100.00;-25550.22;5051043;28;19951;-77
2022/09/10 08:39:06;;;;;;;;;;;;;;;17.21;100.00;-25551.69;5050922;28;19933;-78
2022/09/10 08:41:37;;;;;;;;;;;;;;;17.13;100.00;-25549.22;5050437;28;20032;-79
2022/09/10 08:44:11;;;;;;;;;;;;;;;17.04;100.00;-25546.75;5030113;28;19967;-78
2022/09/10 08:46:41;;;;;;;;;;;;;;;17.20;100.00;-25551.41;5049396;28;19967;-79
2022/09/10 08:49:11;;;;;;;;;;;;;;;17.38;100.00;-25556.47;5061894;28;19927;-78
2022/09/10 08:51:50;;;;;;;;;;;;;;;17.59;100.00;-25562.25;5072347;28;19920;-81
2022/09/10 08:54:21;;;;;;;;;;;;;;;17.58;100.00;-25562.13;5076074;28;19924;-82
2022/09/10 08:56:47;;;;;;;;;;;;;;;17.58;100.00;-25562.13;5070562;28;19956;-81
2022/09/10 08:59:23;;;;;;;;;;;;;;;17.56;100.00;-25561.53;5059973;28;19925;-80
2022/09/10 09:01:58;;;;;;;;;;;;;;;17.73;100.00;-25566.19;5056059;28;19924;-81
2022/09/10 09:04:48;;;;;;;;;;;;;;;18.21;100.00;-25579.63;5057679;28;20369;-82
2022/09/10 09:07:14;;;;;;;;;;;;;;;18.33;100.00;-25583.13;5056089;28;19917;-81
2022/09/10 09:09:41;;;;;;;;;;;;;;;18.59;100.00;-25590.50;5056730;28;19917;-82
2022/09/10 09:12:14;;;;;;;;;;;;;;;18.70;100.00;-25593.53;5055624;28;20442;-81
2022/09/10 09:14:49;;;;;;;;;;;;;;;18.84;100.00;-25597.56;5055896;28;19916;-81
2022/09/10 09:17:37;;;;;;;;;;;;;;;18.74;100.00;-25594.53;5055535;28;20431;-81
2022/09/10 09:20:16;;;;;;;;;;;;;;;18.94;100.00;-25600.19;5055462;28;20369;-82
2022/09/10 09:23:01;;;;;;;;;;;;;;;18.69;100.00;-25593.09;5064838;28;20372;-82
2022/09/10 09:25:29;;;;;;;;;;;;;;;18.78;100.00;-25595.84;5075122;28;19925;-83
2022/09/10 09:27:55;;;;;;;;;;;;;;;19.12;100.00;-25605.38;5073159;28;19920;-78
2022/09/10 09:30:23;;;;;;;;;;;;;;;19.37;100.00;-25612.47;5055363;28;20112;-79
2022/09/10 09:32:49;;;;;;;;;;;;;;;19.59;100.00;-25618.53;5053178;28;19917;-79
2022/09/10 09:35:14;;;;;;;;;;;;;;;19.27;100.00;-25609.56;5053482;28;19924;-82
2022/09/10 09:37:40;;;;;;;;;;;;;;;18.86;100.00;-25598.00;5053004;28;19964;-81
2022/09/10 09:40:16;;;;;;;;;;;;;;;18.71;100.00;-25593.81;5055288;28;19920;-82
2022/09/10 09:43:15;;;;;;;;;;;;;;;18.77;100.00;-25595.41;5055122;28;20002;-79
2022/09/10 09:45:46;;;;;;;;;;;;;;;19.02;100.00;-25602.63;5042706;28;19920;-80
2022/09/10 09:48:14;;;;;;;;;;;;;;;18.78;100.00;-25595.84;5054120;28;19939;-78
2022/09/10 09:50:41;;;;;;;;;;;;;;;18.76;100.00;-25595.13;5053409;28;20008;-79
2022/09/10 09:53:11;;;;;;;;;;;;;;;18.89;100.00;-25598.75;5056825;28;19927;-78
2022/09/10 09:55:39;;;;;;;;;;;;;;;19.06;100.00;-25603.50;5060842;28;19920;-79
2022/09/10 09:58:25;;;;;;;;;;;;;;;19.02;100.00;-25602.63;5053940;28;19916;-80
2022/09/10 10:01:03;;;;;;;;;;;;;;;19.37;100.00;-25612.31;5054238;28;19923;-82
2022/09/10 10:03:30;;;;;;;;;;;;;;;19.33;100.00;-25611.16;5053229;28;19917;-80
2022/09/10 10:06:05;;;;;;;;;;;;;;;19.54;100.00;-25617.22;5060806;28;20380;-82
2022/09/10 10:08:33;;;;;;;;;;;;;;;19.69;100.00;-25621.25;5057123;28;19916;-79
2022/09/10 10:10:58;;;;;;;;;;;;;;;19.33;100.00;-25611.31;5054318;28;20338;-79
2022/09/10 10:13:40;;;;;;;;;;;;;;;19.28;100.00;-25609.88;5037026;28;20021;-79
2022/09/10 10:16:13;;;;;;;;;;;;;;;19.54;100.00;-25617.06;5053875;28;19917;-79
2022/09/10 10:18:40;;;;;;;;;;;;;;;19.95;100.00;-25628.47;5053890;28;19932;-79
2022/09/10 10:21:15;;;;;;;;;;;;;;;19.54;100.00;-25617.22;5053198;28;19924;-81
2022/09/10 10:23:41;;;;;;;;;;;;;;;19.27;100.00;-25609.44;5053636;28;20012;-80
2022/09/10 10:26:22;;;;;;;;;;;;;;;19.34;100.00;-25611.59;5055041;28;20349;-79
2022/09/10 10:28:49;;;;;;;;;;;;;;;20.02;100.00;-25630.50;5053409;28;19917;-78
2022/09/10 10:31:15;;;;;;;;;;;;;;;20.37;100.00;-25640.31;5052936;28;19913;-80
2022/09/10 10:33:58;;;;;;;;;;;;;;;20.12;100.00;-25633.25;5053031;28;19921;-80
2022/09/10 10:36:33;;;;;;;;;;;;;;;19.61;100.00;-25618.94;5053415;28;19912;-79
2022/09/10 10:38:59;;;;;;;;;;;;;;;19.31;100.00;-25610.72;5054180;28;19920;-80
2022/09/10 10:41:34;;;;;;;;;;;;;;;19.07;100.00;-25603.78;5053604;28;19921;-79
2022/09/10 10:44:22;;;;;;;;;;;;;;;18.83;100.00;-25597.13;5086358;28;19920;-80
2022/09/10 10:46:57;;;;;;;;;;;;;;;18.73;100.00;-25594.41;5053489;28;19917;-80
2022/09/10 10:49:31;;;;;;;;;;;;;;;18.51;100.00;-25588.03;5065992;28;20023;-79
2022/09/10 10:51:59;;;;;;;;;;;;;;;18.48;100.00;-25587.31;5073651;28;19916;-81
2022/09/10 10:54:27;;;;;;;;;;;;;;;18.40;100.00;-25585.13;5073493;28;19916;-80
2022/09/10 10:57:18;;;;;;;;;;;;;;;18.28;100.00;-25581.66;5072701;28;19917;-80
2022/09/10 10:59:55;;;;;;;;;;;;;;;18.52;100.00;-25588.31;5055692;28;19943;-80
2022/09/10 11:02:38;;;;;;;;;;;;;;;19.06;100.00;-25603.50;5060344;28;19920;-79
2022/09/10 11:05:15;;;;;;;;;;;;;;;19.46;100.00;-25614.91;5073103;28;19913;-81
2022/09/10 11:07:42;;;;;;;;;;;;;;;19.52;100.00;-25616.50;5072583;28;19950;-80
2022/09/10 11:10:10;;;;;;;;;;;;;;;19.89;100.00;-25626.91;5072640;28;19923;-79
2022/09/10 11:12:49;;;;;;;;;;;;;;;19.61;100.00;-25618.94;5072882;28;19919;-78
2022/09/10 11:15:27;;;;;;;;;;;;;;;19.67;100.00;-25620.69;5072445;28;19917;-80
2022/09/10 11:18:00;;;;;;;;;;;;;;;19.98;100.00;-22313.69;5072573;28;19920;-81
2022/09/10 11:20:28;;;;;;;;;;;;;;;20.48;100.00;-11027.53;5057875;28;20203;-79
2022/09/10 11:23:02;;;;;;;;;;;;;;;20.32;100.00;-365.91;5052703;28;20137;-81
2022/09/10 11:25:31;;;;;;;;;;;;;;;20.17;100.00;-6699.59;5052556;28;19943;-79
2022/09/10 11:28:09;;;;;;;;;;;;;;;19.99;100.00;-14348.75;5052383;28;20479;-78
2022/09/10 11:30:36;;;;;;;;;;;;;;;19.91;100.00;-20985.94;5063080;28;19924;-77
2022/09/10 11:33:22;;;;;;;;;;;;;;;19.77;100.00;-22971.53;5051798;28;19939;-80
2022/09/10 11:36:07;;;;;;;;;;;;;;;19.64;100.00;-24624.56;5052223;28;19920;-80
2022/09/10 11:38:51;;;;;;;;;;;;;;;19.57;100.00;-25617.94;5051919;28;19924;-80
2022/09/10 11:41:27;;;;;;;;;;;;;;;19.32;100.00;-25611.00;5051753;28;20281;-78
2022/09/10 11:44:13;;;;;;;;;;;;;;;19.60;100.00;-25618.81;5051781;28;19916;-80
2022/09/10 11:46:44;;;;;;;;;;;;;;;19.80;100.00;-25624.31;5051158;28;19923;-77
2022/09/10 11:49:31;;;;;;;;;;;;;;;20.18;100.00;-25301.66;5049104;28;19917;-81
2022/09/10 11:51:56;;;;;;;;;;;;;;;20.77;100.00;-22331.78;5048086;28;20369;-81
2022/09/10 11:54:27;;;;;;;;;;;;;;;20.73;100.00;-14356.44;5052173;28;19920;-79
2022/09/10 11:56:59;;;;;;;;;;;;;;;20.37;100.00;-10361.47;5060874;28;19921;-77
2022/09/10 11:59:43;;;;;;;;;;;;;;;20.09;100.00;-11690.66;5071995;28;19963;-81
2022/09/10 12:02:35;;;;;;;;;;;;;;;19.96;100.00;-15344.88;5062996;28;19954;-79
2022/09/10 12:05:06;;;;;;;;;;;;;;;19.65;100.00;-14677.22;5031609;28;19952;-84
2022/09/10 12:07:51;;;;;;;;;;;;;;;19.89;100.00;-17999.94;5033343;28;19921;-81
2022/09/10 12:10:35;;;;;;;;;;;;;;;20.17;100.00;-19664.00;5033545;28;20012;-80
2022/09/10 12:13:07;;;;;;;;;;;;;;;20.36;100.00;-17675.38;5033263;28;19920;-82
2022/09/10 12:15:33;;;;;;;;;;;;;;;20.42;100.00;-16679.69;5050188;28;20379;-82
2022/09/10 12:18:03;;;;;;;;;;;;;;;20.32;100.00;-12357.25;5033705;28;20028;-81
2022/09/10 12:20:41;;;;;;;;;;;;;;;20.16;100.00;-6033.59;5049134;28;19921;-80
2022/09/10 12:23:28;;;;;;;;;;;;;;;20.68;100.00;-7031.97;5047706;28;19936;-80
2022/09/10 12:26:06;;;;;;;;;;;;;;;21.02;100.00;-5697.75;5033392;28;19947;-80
2022/09/10 12:28:44;;;;;;;;;;;;;;;21.31;100.00;-2024.66;5053028;28;20004;-80
2022/09/10 12:31:11;;;;;;;;;;;;;;;21.00;100.00;8000.28;5036665;28;19913;-80
2022/09/10 12:33:44;;;;;;;;;;;;;;;20.95;100.00;12352.28;5052630;28;19932;-79
2022/09/10 12:36:12;;;;;;;;;;;;;;;20.56;100.00;12339.75;5036064;28;19913;-79
2022/09/10 12:38:44;;;;;;;;;;;;;;;20.15;100.00;7310.69;5052594;28;20020;-81
2022/09/10 12:41:11;;;;;;;;;;;;;;;20.29;100.00;634.66;5035365;28;19951;-81
2022/09/10 12:43:42;;;;;;;;;;;;;;;20.45;100.00;2639.91;5037020;28;19969;-81